createdAt,value
2019-02-27T00:00:21.132Z,3.43
2019-02-27T00:02:50.907Z,3.51
2019-02-27T00:05:20.698Z,3.50
2019-02-27T00:07:51.862Z,3.53
2019-02-27T00:10:22.056Z,3.54
2019-02-27T00:12:52.537Z,3.53
2019-02-27T00:15:22.629Z,3.49
2019-02-27T00:17:52.548Z,3.43
2019-02-27T00:20:22.354Z,3.46
2019-02-27T00:22:52.247Z,3.46
2019-02-27T00:25:22.036Z,3.39
2019-02-27T00:27:51.806Z,3.46
2019-02-27T00:30:21.542Z,3.38
2019-02-27T00:32:51.915Z,3.39
2019-02-27T00:35:21.657Z,3.35
2019-02-27T00:37:52.051Z,3.26
2019-02-27T00:40:22.464Z,3.27
2019-02-27T00:42:54.359Z,3.19
2019-02-27T00:45:23.779Z,3.11
2019-02-27T00:47:53.844Z,3.08
2019-02-27T00:50:23.587Z,3.05
2019-02-27T00:52:53.497Z,3.03
2019-02-27T00:55:23.250Z,3.01
2019-02-27T00:57:54.436Z,2.93
2019-02-27T01:00:24.506Z,2.87
2019-02-27T01:02:54.306Z,2.80
2019-02-27T01:05:24.093Z,2.65
2019-02-27T01:07:54.706Z,2.60
2019-02-27T01:10:24.578Z,2.49
2019-02-27T01:12:57.718Z,2.42
2019-02-27T01:15:25.849Z,2.34
2019-02-27T01:17:57.445Z,2.27
2019-02-27T01:20:27.136Z,2.19
2019-02-27T01:22:56.956Z,2.24
2019-02-27T01:25:26.742Z,2.19
2019-02-27T01:27:56.523Z,2.14
2019-02-27T01:30:26.295Z,2.06
2019-02-27T01:32:56.351Z,2.04
2019-02-27T01:35:26.152Z,2.09
2019-02-27T01:37:55.933Z,2.00
2019-02-27T01:40:25.737Z,1.93
2019-02-27T01:42:55.520Z,1.93
2019-02-27T01:45:25.298Z,1.86
2019-02-27T01:47:55.072Z,1.83
2019-02-27T01:50:30.269Z,1.83
2019-02-27T01:53:00.045Z,1.78
2019-02-27T01:55:29.854Z,1.73
2019-02-27T01:57:59.636Z,1.67
2019-02-27T02:00:29.410Z,1.58
2019-02-27T02:02:59.194Z,1.63
2019-02-27T02:05:28.938Z,1.64
2019-02-27T02:07:59.249Z,1.59
2019-02-27T02:10:29.002Z,1.57
2019-02-27T02:13:01.953Z,1.56
2019-02-27T02:15:37.423Z,1.48
2019-02-27T02:18:31.165Z,1.49
2019-02-27T02:21:07.037Z,1.56
2019-02-27T02:23:55.130Z,1.50
2019-02-27T02:26:44.280Z,1.47
2019-02-27T02:29:33.907Z,1.46
2019-02-27T02:32:09.438Z,1.45
2019-02-27T02:34:57.288Z,1.38
2019-02-27T02:37:33.699Z,1.39
2019-02-27T02:40:19.300Z,1.35
2019-02-27T02:42:54.870Z,1.28
2019-02-27T02:45:32.843Z,1.29
2019-02-27T02:48:17.493Z,1.21
2019-02-27T02:51:00.760Z,1.15
2019-02-27T02:53:48.434Z,1.19
2019-02-27T02:56:29.261Z,1.24
2019-02-27T02:59:35.441Z,1.19
2019-02-27T03:02:23.488Z,1.18
2019-02-27T03:05:06.753Z,1.20
2019-02-27T03:08:11.189Z,1.16
2019-02-27T03:10:44.046Z,1.15
2019-02-27T03:13:32.247Z,1.08
2019-02-27T03:16:05.909Z,1.08
2019-02-27T03:18:57.209Z,1.08
2019-02-27T03:21:35.998Z,1.02
2019-02-27T03:24:18.121Z,1.08
2019-02-27T03:26:59.792Z,1.05
2019-02-27T03:29:51.989Z,1.02
2019-02-27T03:32:43.325Z,1.05
2019-02-27T03:35:27.552Z,1.01
2019-02-27T03:37:58.499Z,1.04
2019-02-27T03:40:49.138Z,1.11
2019-02-27T03:43:36.952Z,1.19
2019-02-27T03:46:42.035Z,1.40
2019-02-27T03:49:30.031Z,1.55
2019-02-27T03:52:37.385Z,1.50
2019-02-27T03:55:43.845Z,1.48
2019-02-27T03:58:48.766Z,1.41
2019-02-27T04:01:54.865Z,1.25
2019-02-27T04:04:44.337Z,1.23
2019-02-27T04:07:31.799Z,1.18
2019-02-27T04:10:00.673Z,1.16
2019-02-27T04:12:30.417Z,1.12
2019-02-27T04:15:00.379Z,1.05
2019-02-27T04:17:29.174Z,1.02
2019-02-27T04:19:58.966Z,1.01
2019-02-27T04:22:28.750Z,0.98
2019-02-27T04:24:58.564Z,0.93
2019-02-27T04:27:28.331Z,0.82
2019-02-27T04:29:58.139Z,0.77
2019-02-27T04:32:27.919Z,0.81
2019-02-27T04:34:57.657Z,0.82
2019-02-27T04:37:27.502Z,0.76
2019-02-27T04:39:57.288Z,0.80
2019-02-27T04:42:27.177Z,0.70
2019-02-27T04:44:58.401Z,0.67
2019-02-27T04:47:29.166Z,0.66
2019-02-27T04:49:59.669Z,0.63
2019-02-27T04:52:29.398Z,0.66
2019-02-27T04:54:59.191Z,0.66
2019-02-27T04:57:30.780Z,0.62
2019-02-27T05:00:00.447Z,0.68
2019-02-27T05:02:30.248Z,0.66
2019-02-27T05:04:59.983Z,0.65
2019-02-27T05:07:29.743Z,0.62
2019-02-27T05:09:59.510Z,0.60
2019-02-27T05:12:29.305Z,0.58
2019-02-27T05:15:00.972Z,0.58
2019-02-27T05:17:30.598Z,0.57
2019-02-27T05:20:00.376Z,0.52
2019-02-27T05:22:30.197Z,0.57
2019-02-27T05:25:02.407Z,0.56
2019-02-27T05:27:32.036Z,0.58
2019-02-27T05:30:01.821Z,0.58
2019-02-27T05:32:31.623Z,0.59
2019-02-27T05:35:01.406Z,0.59
2019-02-27T05:37:31.205Z,0.57
2019-02-27T05:40:00.973Z,0.58
2019-02-27T05:42:30.755Z,0.52
2019-02-27T05:45:00.537Z,0.53
2019-02-27T05:47:30.291Z,0.48
2019-02-27T05:50:00.478Z,0.54
2019-02-27T05:52:31.304Z,0.46
2019-02-27T05:55:01.095Z,0.53
2019-02-27T05:57:31.456Z,0.52
2019-02-27T06:00:02.555Z,0.39
2019-02-27T06:02:32.849Z,0.38
2019-02-27T06:05:02.653Z,0.43
2019-02-27T06:07:33.999Z,0.37
2019-02-27T06:10:04.899Z,0.37
2019-02-27T06:12:34.656Z,0.40
2019-02-27T06:15:06.755Z,0.41
2019-02-27T06:17:43.306Z,0.41
2019-02-27T06:20:08.587Z,0.41
2019-02-27T06:22:38.481Z,0.40
2019-02-27T06:25:13.982Z,0.40
2019-02-27T06:27:43.745Z,0.43
2019-02-27T06:30:18.185Z,0.42
2019-02-27T06:32:47.949Z,0.40
2019-02-27T06:35:17.736Z,0.39
2019-02-27T06:37:50.419Z,0.39
2019-02-27T06:40:19.071Z,0.48
2019-02-27T06:42:53.386Z,0.49
2019-02-27T06:45:20.360Z,0.53
2019-02-27T06:47:50.142Z,0.49
2019-02-27T06:50:19.943Z,0.53
2019-02-27T06:52:49.720Z,0.59
2019-02-27T06:55:19.492Z,0.56
2019-02-27T06:57:49.266Z,0.61
2019-02-27T07:00:22.196Z,0.69
2019-02-27T07:02:55.220Z,0.74
2019-02-27T07:05:23.445Z,0.77
2019-02-27T07:07:53.691Z,0.82
2019-02-27T07:10:23.502Z,0.88
2019-02-27T07:12:54.755Z,0.84
2019-02-27T07:15:24.742Z,0.83
2019-02-27T07:17:54.494Z,0.93
2019-02-27T07:20:25.417Z,0.99
2019-02-27T07:22:55.215Z,1.06
2019-02-27T07:25:25.024Z,1.02
2019-02-27T07:27:54.757Z,1.08
2019-02-27T07:30:24.538Z,1.13
2019-02-27T07:32:54.319Z,1.26
2019-02-27T07:35:26.355Z,1.28
2019-02-27T07:37:55.561Z,1.21
2019-02-27T07:40:25.334Z,1.36
2019-02-27T07:42:55.133Z,1.45
2019-02-27T07:45:24.912Z,1.48
2019-02-27T07:47:54.727Z,1.56
2019-02-27T07:50:24.517Z,1.68
2019-02-27T07:52:54.282Z,1.76
2019-02-27T07:55:28.400Z,1.89
2019-02-27T07:57:58.680Z,1.93
2019-02-27T08:00:28.392Z,1.94
2019-02-27T08:02:58.208Z,2.10
2019-02-27T08:05:29.104Z,2.23
2019-02-27T08:07:59.122Z,2.26
2019-02-27T08:10:28.891Z,2.38
2019-02-27T08:12:58.667Z,2.55
2019-02-27T08:15:28.453Z,2.61
2019-02-27T08:18:00.721Z,2.83
2019-02-27T08:20:30.529Z,2.93
2019-02-27T08:23:00.378Z,2.99
2019-02-27T08:25:30.169Z,3.03
2019-02-27T08:28:01.484Z,3.10
2019-02-27T08:30:31.290Z,3.17
2019-02-27T08:33:01.038Z,3.28
2019-02-27T08:35:30.836Z,3.34
2019-02-27T08:38:02.805Z,3.46
2019-02-27T08:40:32.076Z,3.61
2019-02-27T08:43:01.837Z,3.71
2019-02-27T08:45:31.612Z,3.75
2019-02-27T08:48:01.389Z,3.86
2019-02-27T08:50:32.279Z,3.88
2019-02-27T08:53:02.201Z,3.95
2019-02-27T08:55:31.934Z,4.09
2019-02-27T08:58:01.707Z,4.16
2019-02-27T09:00:33.245Z,4.27
2019-02-27T09:03:03.729Z,4.33
2019-02-27T09:05:33.705Z,4.42
2019-02-27T09:08:03.682Z,4.55
2019-02-27T09:10:33.460Z,4.61
2019-02-27T09:13:05.844Z,4.67
2019-02-27T09:15:34.709Z,4.80
2019-02-27T09:18:04.851Z,4.85
2019-02-27T09:20:34.657Z,4.89
2019-02-27T09:23:04.395Z,4.92
2019-02-27T09:25:34.176Z,4.91
2019-02-27T09:28:08.778Z,4.94
2019-02-27T09:30:35.400Z,4.85
2019-02-27T09:33:05.217Z,4.85
2019-02-27T09:35:38.465Z,4.86
2019-02-27T09:38:08.045Z,4.84
2019-02-27T09:40:38.841Z,4.84
2019-02-27T09:43:09.868Z,4.90
2019-02-27T09:45:39.670Z,5.00
2019-02-27T09:48:10.438Z,5.10
2019-02-27T09:50:45.234Z,5.11
2019-02-27T09:53:13.910Z,5.15
2019-02-27T09:55:43.644Z,5.17
2019-02-27T09:58:13.417Z,5.25
2019-02-27T10:00:45.511Z,5.28
2019-02-27T10:03:20.065Z,5.31
2019-02-27T10:05:47.806Z,5.27
2019-02-27T10:08:17.749Z,5.36
2019-02-27T10:10:47.529Z,5.33
2019-02-27T10:13:17.430Z,5.33
2019-02-27T10:15:47.208Z,5.39
2019-02-27T10:18:18.950Z,5.41
2019-02-27T10:20:48.449Z,5.52
2019-02-27T10:23:18.236Z,5.61
2019-02-27T10:25:49.848Z,5.62
2019-02-27T10:28:19.517Z,5.69
2019-02-27T10:30:49.909Z,5.71
2019-02-27T10:33:20.510Z,5.75
2019-02-27T10:35:50.308Z,5.81
2019-02-27T10:38:20.296Z,5.80
2019-02-27T10:40:50.123Z,5.80
2019-02-27T10:43:21.140Z,5.82
2019-02-27T10:45:51.100Z,5.88
2019-02-27T10:48:20.870Z,5.87
2019-02-27T10:50:50.646Z,5.98
2019-02-27T10:53:20.426Z,6.03
2019-02-27T10:55:50.362Z,6.11
2019-02-27T10:58:20.162Z,6.18
2019-02-27T11:00:50.484Z,6.26
2019-02-27T11:03:20.266Z,6.39
2019-02-27T11:05:54.039Z,6.42
2019-02-27T11:08:21.520Z,6.54
2019-02-27T11:10:51.257Z,6.68
2019-02-27T11:13:21.085Z,6.79
2019-02-27T11:15:50.882Z,6.78
2019-02-27T11:18:20.710Z,6.86
2019-02-27T11:20:50.597Z,6.98
2019-02-27T11:23:20.379Z,7.09
2019-02-27T11:25:50.180Z,7.08
2019-02-27T11:28:19.893Z,7.09
2019-02-27T11:30:51.060Z,7.13
2019-02-27T11:33:25.499Z,7.21
2019-02-27T11:35:52.628Z,7.24
2019-02-27T11:38:24.827Z,7.24
2019-02-27T11:40:53.871Z,7.26
2019-02-27T11:43:23.619Z,7.27
2019-02-27T11:45:57.717Z,7.30
2019-02-27T11:48:24.986Z,7.38
2019-02-27T11:50:54.799Z,7.40
2019-02-27T11:53:24.574Z,7.44
2019-02-27T11:55:54.343Z,7.50
2019-02-27T11:58:24.115Z,7.45
2019-02-27T12:00:54.322Z,7.55
2019-02-27T12:03:24.108Z,7.59
2019-02-27T12:05:53.847Z,7.57
2019-02-27T12:08:25.937Z,7.62
2019-02-27T12:10:55.113Z,7.59
2019-02-27T12:13:24.855Z,7.56
2019-02-27T12:15:54.664Z,7.67
2019-02-27T12:18:24.421Z,7.69
2019-02-27T12:20:54.231Z,7.79
2019-02-27T12:23:23.978Z,7.93
2019-02-27T12:25:53.754Z,8.02
2019-02-27T12:28:24.220Z,8.08
2019-02-27T12:30:53.962Z,8.13
2019-02-27T12:33:23.775Z,8.23
2019-02-27T12:35:53.517Z,8.30
2019-02-27T12:38:23.312Z,8.34
2019-02-27T12:40:53.056Z,8.48
2019-02-27T12:43:22.833Z,8.56
2019-02-27T12:45:52.607Z,8.58
2019-02-27T12:48:22.376Z,8.60
2019-02-27T12:50:52.163Z,8.67
2019-02-27T12:53:21.918Z,8.70
2019-02-27T12:55:53.150Z,8.73
2019-02-27T12:58:25.247Z,8.79
2019-02-27T13:00:55.619Z,8.82
2019-02-27T13:03:25.353Z,8.92
2019-02-27T13:05:55.144Z,8.98
2019-02-27T13:08:24.877Z,9.02
2019-02-27T13:10:54.685Z,9.08
2019-02-27T13:13:25.925Z,9.11
2019-02-27T13:15:55.929Z,9.17
2019-02-27T13:18:25.669Z,9.25
2019-02-27T13:20:55.441Z,9.32
2019-02-27T13:23:25.223Z,9.35
2019-02-27T13:25:57.473Z,9.40
2019-02-27T13:28:26.470Z,9.45
2019-02-27T13:30:56.223Z,9.50
2019-02-27T13:33:26.026Z,9.56
2019-02-27T13:35:56.748Z,9.56
2019-02-27T13:38:27.257Z,9.61
2019-02-27T13:40:57.001Z,9.62
2019-02-27T13:43:27.176Z,9.71
2019-02-27T13:45:57.543Z,9.77
2019-02-27T13:48:27.342Z,9.78
2019-02-27T13:50:59.246Z,9.84
2019-02-27T13:53:28.566Z,9.85
2019-02-27T13:55:58.374Z,9.92
2019-02-27T13:58:28.137Z,9.97
2019-02-27T14:00:58.226Z,9.98
2019-02-27T14:03:28.024Z,10.04
2019-02-27T14:05:57.767Z,10.07
2019-02-27T14:08:31.709Z,10.11
2019-02-27T14:11:00.111Z,10.13
2019-02-27T14:13:30.862Z,10.17
2019-02-27T14:16:01.513Z,10.20
2019-02-27T14:18:31.464Z,10.24
2019-02-27T14:21:01.778Z,10.24
2019-02-27T14:23:32.228Z,10.29
2019-02-27T14:26:05.566Z,10.33
2019-02-27T14:28:33.472Z,10.37
2019-02-27T14:31:03.224Z,10.41
2019-02-27T14:33:33.018Z,10.41
2019-02-27T14:36:02.804Z,10.42
2019-02-27T14:38:32.556Z,10.42
2019-02-27T14:41:02.371Z,10.45
2019-02-27T14:43:32.127Z,10.46
2019-02-27T14:46:01.871Z,10.51
2019-02-27T14:48:31.690Z,10.51
2019-02-27T14:51:01.471Z,10.55
2019-02-27T14:53:31.275Z,10.58
2019-02-27T14:56:01.045Z,10.61
2019-02-27T14:58:30.792Z,10.65
2019-02-27T15:01:00.762Z,10.67
2019-02-27T15:03:30.498Z,10.69
2019-02-27T15:06:00.301Z,10.68
2019-02-27T15:08:30.069Z,10.70
2019-02-27T15:10:59.836Z,10.69
2019-02-27T15:13:29.623Z,10.75
2019-02-27T15:15:59.433Z,10.72
2019-02-27T15:18:29.209Z,10.76
2019-02-27T15:20:59.024Z,10.75
2019-02-27T15:23:28.799Z,10.72
2019-02-27T15:25:58.588Z,10.71
2019-02-27T15:28:33.039Z,10.70
2019-02-27T15:30:59.823Z,10.66
2019-02-27T15:33:29.653Z,10.69
2019-02-27T15:35:59.493Z,10.70
2019-02-27T15:38:29.318Z,10.67
2019-02-27T15:41:02.379Z,10.62
2019-02-27T15:43:30.603Z,10.57
2019-02-27T15:46:00.350Z,10.53
2019-02-27T15:48:30.178Z,10.49
2019-02-27T15:51:00.023Z,10.45
2019-02-27T15:53:29.832Z,10.42
2019-02-27T15:55:59.625Z,10.38
2019-02-27T15:58:29.472Z,10.33
2019-02-27T16:00:59.241Z,10.30
2019-02-27T16:03:29.017Z,10.25
2019-02-27T16:05:58.813Z,10.18
2019-02-27T16:08:28.582Z,10.14
2019-02-27T16:10:58.423Z,10.08
2019-02-27T16:13:28.169Z,10.02
2019-02-27T16:16:00.251Z,9.95
2019-02-27T16:18:29.986Z,9.90
2019-02-27T16:20:59.771Z,9.82
2019-02-27T16:23:29.571Z,9.77
2019-02-27T16:25:59.339Z,9.73
2019-02-27T16:28:29.137Z,9.65
2019-02-27T16:30:58.891Z,9.60
2019-02-27T16:47:28.644Z,9.26
2019-02-27T16:59:47.074Z,9.04
2019-02-27T17:32:31.307Z,8.66
2019-02-27T17:59:43.800Z,8.39
2019-02-27T18:09:03.069Z,8.26
2019-02-27T19:04:00.332Z,7.91
2019-02-27T19:06:31.606Z,7.86
2019-02-27T19:09:02.795Z,7.84
2019-02-27T19:11:38.446Z,7.81
2019-02-27T19:14:10.923Z,7.79
2019-02-27T19:55:40.414Z,7.32
2019-02-27T20:10:56.241Z,7.18
2019-02-27T20:20:12.963Z,7.14
2019-02-27T20:53:58.906Z,6.96
2019-02-27T21:34:55.153Z,6.46
2019-02-27T21:37:33.414Z,6.42
2019-02-27T21:40:36.965Z,6.39
2019-02-27T21:43:09.431Z,6.34
2019-02-27T21:54:44.793Z,6.13
2019-02-27T21:57:15.468Z,6.12
2019-02-27T21:59:45.227Z,6.08
2019-02-27T22:02:15.111Z,6.01
2019-02-27T22:04:44.845Z,5.98
2019-02-27T22:07:14.622Z,5.98
2019-02-27T22:09:45.494Z,5.97
2019-02-27T22:12:15.306Z,5.93
2019-02-27T22:14:45.044Z,5.93
2019-02-27T22:17:14.836Z,5.93
2019-02-27T22:19:44.567Z,5.90
2019-02-27T22:22:14.341Z,5.84
2019-02-27T22:24:44.106Z,5.87
2019-02-27T22:27:13.844Z,5.81
2019-02-27T22:29:43.615Z,5.79
2019-02-27T22:32:14.662Z,5.71
2019-02-27T22:34:44.839Z,5.66
2019-02-27T22:37:17.493Z,5.60
2019-02-27T22:39:46.059Z,5.52
2019-02-27T22:42:15.818Z,5.46
2019-02-27T22:44:45.587Z,5.41
2019-02-27T22:47:15.342Z,5.33
2019-02-27T22:49:45.115Z,5.32
2019-02-27T22:52:15.160Z,5.29
2019-02-27T22:54:44.927Z,5.28
2019-02-27T22:57:14.659Z,5.25
2019-02-27T22:59:44.424Z,5.24
2019-02-27T23:02:14.166Z,5.24
2019-02-27T23:04:43.928Z,5.22
2019-02-27T23:07:13.661Z,5.26
2019-02-27T23:09:43.431Z,5.27
2019-02-27T23:12:13.167Z,5.31
2019-02-27T23:14:42.928Z,5.31
2019-02-27T23:17:12.666Z,5.30
2019-02-27T23:19:46.067Z,5.33
2019-02-27T23:22:13.853Z,5.33
2019-02-27T23:24:43.981Z,5.33
2019-02-27T23:27:14.342Z,5.27
2019-02-27T23:29:44.112Z,5.33
2019-02-27T23:32:13.849Z,5.28
2019-02-27T23:34:43.606Z,5.27
2019-02-27T23:37:13.345Z,5.28
2019-02-27T23:39:43.664Z,5.27
2019-02-27T23:42:13.627Z,5.28
2019-02-27T23:44:43.399Z,5.28
2019-02-27T23:47:13.141Z,5.30
2019-02-27T23:49:42.909Z,5.32
2019-02-27T23:52:12.649Z,5.31
2019-02-27T23:54:42.426Z,5.31
2019-02-27T23:57:12.158Z,5.32
2019-02-27T23:59:41.924Z,5.31
